createdAt,value
2023-05-14T00:00:59.633Z,100744.91
2023-05-14T00:03:27.572Z,100741.25
2023-05-14T00:05:56.778Z,100735.59
2023-05-14T00:08:24.637Z,100731.91
2023-05-14T00:10:52.446Z,100738.06
2023-05-14T00:13:20.253Z,100740.66
2023-05-14T00:15:48.079Z,100739.91
2023-05-14T00:18:15.965Z,100724.25
2023-05-14T00:20:44.017Z,100728.94
2023-05-14T00:23:13.193Z,100726.25
2023-05-14T00:25:41.068Z,100733.53
2023-05-14T00:28:08.835Z,100727.38
2023-05-14T00:30:36.646Z,100720.34
2023-05-14T00:33:05.040Z,100729.56
2023-05-14T00:35:35.223Z,100719.44
2023-05-14T00:38:03.466Z,100714.28
2023-05-14T00:40:32.731Z,100720.78
2023-05-14T00:43:00.706Z,100719.03
2023-05-14T00:45:29.137Z,100710.88
2023-05-14T00:47:57.120Z,100712.09
2023-05-14T00:50:25.452Z,100707.47
2023-05-14T00:52:53.745Z,100670.16
2023-05-14T00:55:23.465Z,100657.94
2023-05-14T00:57:55.740Z,100710.38
2023-05-14T01:00:23.995Z,100701.81
2023-05-14T01:02:51.966Z,100707.06
2023-05-14T01:05:20.041Z,100686.44
2023-05-14T01:07:58.389Z,100684.50
2023-05-14T01:10:31.461Z,100699.22
2023-05-14T01:13:05.174Z,100704.06
2023-05-14T01:15:35.472Z,100711.09
2023-05-14T01:18:05.594Z,100707.22
2023-05-14T01:20:33.469Z,100708.13
2023-05-14T01:23:02.646Z,100705.13
2023-05-14T01:25:31.703Z,100718.97
2023-05-14T01:28:07.664Z,100710.94
2023-05-14T01:30:37.878Z,100709.09
2023-05-14T01:33:09.980Z,100707.59
2023-05-14T01:35:38.332Z,100707.75
2023-05-14T01:38:10.599Z,100705.03
2023-05-14T01:40:38.738Z,100594.47
2023-05-14T01:43:07.371Z,100707.59
2023-05-14T01:45:37.744Z,100703.31
2023-05-14T01:48:06.445Z,100702.94
2023-05-14T01:50:34.494Z,100699.84
2023-05-14T01:53:02.319Z,100698.63
2023-05-14T01:55:31.542Z,100696.16
2023-05-14T01:57:59.352Z,100681.53
2023-05-14T02:00:28.398Z,100698.56
2023-05-14T02:02:56.247Z,100690.69
2023-05-14T02:05:24.480Z,100694.41
2023-05-14T02:07:53.698Z,100691.00
2023-05-14T02:10:22.015Z,100687.66
2023-05-14T02:12:52.163Z,100682.41
2023-05-14T02:15:20.080Z,100680.84
2023-05-14T02:17:47.986Z,100689.00
2023-05-14T02:20:15.932Z,100684.84
2023-05-14T02:22:45.693Z,100678.69
2023-05-14T02:25:13.665Z,100676.13
2023-05-14T02:27:41.466Z,100678.06
2023-05-14T02:30:12.663Z,100683.16
2023-05-14T02:32:40.653Z,100665.50
2023-05-14T02:35:09.369Z,100677.91
2023-05-14T02:37:38.358Z,100678.16
2023-05-14T02:40:07.916Z,100669.31
2023-05-14T02:42:35.840Z,100658.81
2023-05-14T02:45:03.564Z,100661.72
2023-05-14T02:47:33.031Z,100673.13
2023-05-14T02:50:00.897Z,100675.53
2023-05-14T02:52:28.692Z,100667.31
2023-05-14T02:54:56.509Z,100664.75
2023-05-14T02:57:24.417Z,100664.56
2023-05-14T02:59:52.258Z,100673.31
2023-05-14T03:02:20.650Z,100676.94
2023-05-14T03:04:50.487Z,100676.78
2023-05-14T03:07:18.294Z,100668.78
2023-05-14T03:09:46.197Z,100670.72
2023-05-14T03:12:14.442Z,100668.31
2023-05-14T03:14:42.287Z,100668.28
2023-05-14T03:17:10.401Z,100665.09
2023-05-14T03:19:38.264Z,100662.22
2023-05-14T03:22:09.914Z,100651.88
2023-05-14T03:24:39.972Z,100664.13
2023-05-14T03:27:07.866Z,100654.56
2023-05-14T03:29:35.822Z,100671.22
2023-05-14T03:32:03.643Z,100637.63
2023-05-14T03:34:31.458Z,100619.25
2023-05-14T03:36:59.991Z,100661.00
2023-05-14T03:39:29.144Z,100664.56
2023-05-14T03:41:59.015Z,100663.91
2023-05-14T03:44:26.918Z,100661.47
2023-05-14T03:46:54.687Z,100604.66
2023-05-14T03:49:22.813Z,100665.78
2023-05-14T03:51:51.377Z,100655.41
2023-05-14T03:54:19.328Z,100655.63
2023-05-14T03:56:48.552Z,100659.78
2023-05-14T03:59:16.297Z,100641.91
2023-05-14T04:01:44.699Z,100652.59
2023-05-14T04:04:12.658Z,100656.91
2023-05-14T04:06:40.840Z,100665.88
2023-05-14T04:09:10.651Z,100655.91
2023-05-14T04:11:38.566Z,100658.47
2023-05-14T04:14:08.280Z,100635.09
2023-05-14T04:16:36.194Z,100649.75
2023-05-14T04:19:04.887Z,100660.00
2023-05-14T04:21:32.820Z,100665.13
2023-05-14T04:24:00.900Z,100666.84
2023-05-14T04:26:28.668Z,100662.97
2023-05-14T04:28:56.576Z,100669.72
2023-05-14T04:31:26.045Z,100656.31
2023-05-14T04:33:53.861Z,100652.50
2023-05-14T04:36:21.640Z,100484.72
2023-05-14T04:38:49.399Z,100653.94
2023-05-14T04:41:17.215Z,100649.13
2023-05-14T04:43:44.897Z,100655.97
2023-05-14T04:46:13.894Z,100646.81
2023-05-14T04:48:43.361Z,100652.59
2023-05-14T04:51:11.243Z,100646.94
2023-05-14T04:53:39.055Z,100649.41
2023-05-14T04:56:07.321Z,100600.75
2023-05-14T04:58:35.403Z,100659.06
2023-05-14T05:01:05.866Z,100655.25
2023-05-14T05:03:33.924Z,100654.13
2023-05-14T05:06:03.403Z,100656.13
2023-05-14T05:08:32.142Z,100651.38
2023-05-14T05:10:59.940Z,100655.53
2023-05-14T05:13:27.683Z,100654.81
2023-05-14T05:15:55.513Z,100650.09
2023-05-14T05:18:23.316Z,100655.06
2023-05-14T05:20:51.560Z,100652.38
2023-05-14T05:23:20.768Z,100649.69
2023-05-14T05:25:48.548Z,100652.00
2023-05-14T05:28:16.310Z,100655.06
2023-05-14T05:30:45.164Z,100647.00
2023-05-14T05:33:13.489Z,100641.78
2023-05-14T05:35:41.796Z,100642.84
2023-05-14T05:38:09.655Z,100611.38
2023-05-14T05:40:38.958Z,100647.28
2023-05-14T05:43:06.799Z,100633.53
2023-05-14T05:45:34.759Z,100645.91
2023-05-14T05:48:03.041Z,100642.72
2023-05-14T05:50:32.687Z,100648.84
2023-05-14T05:53:00.513Z,100647.22
2023-05-14T05:55:28.272Z,100643.31
2023-05-14T05:57:57.626Z,100646.31
2023-05-14T06:00:25.757Z,100647.69
2023-05-14T06:02:53.808Z,100639.59
2023-05-14T06:05:21.865Z,100636.97
2023-05-14T06:07:49.773Z,100651.75
2023-05-14T06:10:17.666Z,100643.31
2023-05-14T06:12:45.563Z,100638.00
2023-05-14T06:15:15.568Z,100601.09
2023-05-14T06:17:43.362Z,100647.44
2023-05-14T06:20:12.114Z,100642.06
2023-05-14T06:22:39.976Z,100647.38
2023-05-14T06:25:08.927Z,100649.81
2023-05-14T06:27:36.759Z,100635.63
2023-05-14T06:30:04.959Z,100641.22
2023-05-14T06:32:34.167Z,100470.41
2023-05-14T06:35:01.996Z,100640.16
2023-05-14T06:37:29.779Z,100647.69
2023-05-14T06:39:58.055Z,100646.63
2023-05-14T06:42:26.404Z,100642.78
2023-05-14T06:44:54.542Z,100636.16
2023-05-14T06:47:22.432Z,100637.41
2023-05-14T06:49:51.704Z,100644.00
2023-05-14T06:52:19.602Z,100621.25
2023-05-14T06:54:47.437Z,100635.69
2023-05-14T06:57:15.253Z,100593.34
2023-05-14T06:59:43.152Z,100630.66
2023-05-14T07:02:11.392Z,100628.13
2023-05-14T07:04:39.243Z,100625.72
2023-05-14T07:07:10.513Z,100632.06
2023-05-14T07:09:38.321Z,100629.25
2023-05-14T07:12:07.222Z,100626.63
2023-05-14T07:14:35.430Z,100621.44
2023-05-14T07:17:03.258Z,100626.09
2023-05-14T07:19:31.194Z,100618.97
2023-05-14T07:21:58.991Z,100577.41
2023-05-14T07:24:28.289Z,100617.75
2023-05-14T07:26:57.239Z,100618.91
2023-05-14T07:29:25.729Z,100621.72
2023-05-14T07:31:53.630Z,100596.47
2023-05-14T07:34:21.592Z,100620.06
2023-05-14T07:36:49.725Z,100591.75
2023-05-14T07:39:17.585Z,100621.22
2023-05-14T07:41:46.865Z,100601.34
2023-05-14T07:44:14.698Z,100609.88
2023-05-14T07:46:42.982Z,100609.38
2023-05-14T07:49:10.799Z,100585.44
2023-05-14T07:51:38.706Z,100582.16
2023-05-14T07:54:06.615Z,100607.34
2023-05-14T07:56:34.677Z,100603.56
2023-05-14T07:59:03.877Z,100569.50
2023-05-14T08:01:32.363Z,100595.97
2023-05-14T08:04:00.316Z,100570.34
2023-05-14T08:06:29.573Z,100601.19
2023-05-14T08:08:57.368Z,100542.28
2023-05-14T08:11:26.181Z,100598.50
2023-05-14T08:13:54.029Z,100591.91
2023-05-14T08:16:23.490Z,100591.09
2023-05-14T08:18:51.523Z,100600.31
2023-05-14T08:21:19.354Z,100588.75
2023-05-14T08:23:47.225Z,100586.00
2023-05-14T08:26:15.079Z,100581.47
2023-05-14T08:28:43.086Z,100585.34
2023-05-14T08:31:11.348Z,100574.56
2023-05-14T08:33:40.859Z,100579.44
2023-05-14T08:36:09.266Z,100577.31
2023-05-14T08:38:37.074Z,100574.09
2023-05-14T08:41:07.430Z,100571.63
2023-05-14T08:43:43.595Z,100576.31
2023-05-14T08:46:15.154Z,100573.78
2023-05-14T08:48:48.370Z,100535.81
2023-05-14T08:51:16.310Z,100572.41
2023-05-14T08:53:44.083Z,100555.50
2023-05-14T08:56:13.041Z,100568.31
2023-05-14T08:58:40.888Z,100571.38
2023-05-14T09:01:08.720Z,100561.44
2023-05-14T09:03:38.059Z,100557.53
2023-05-14T09:06:08.621Z,100556.06
2023-05-14T09:08:38.703Z,100562.72
2023-05-14T09:11:06.783Z,100549.59
2023-05-14T09:13:37.527Z,100550.81
2023-05-14T09:16:05.794Z,100560.66
2023-05-14T09:18:33.710Z,100554.38
2023-05-14T09:21:02.673Z,100560.47
2023-05-14T09:23:34.625Z,100541.59
2023-05-14T09:26:05.870Z,100560.63
2023-05-14T09:28:33.805Z,100554.97
2023-05-14T09:31:03.074Z,100557.16
2023-05-14T09:33:31.057Z,100542.19
2023-05-14T09:36:02.571Z,100549.72
2023-05-14T09:38:30.896Z,100538.38
2023-05-14T09:41:01.506Z,100531.50
2023-05-14T09:43:29.413Z,100537.34
2023-05-14T09:45:57.201Z,100527.31
2023-05-14T09:48:25.121Z,100532.06
2023-05-14T09:50:53.149Z,100529.78
2023-05-14T09:53:21.085Z,100520.59
2023-05-14T09:55:49.319Z,100527.66
2023-05-14T09:58:18.635Z,100520.56
2023-05-14T10:00:47.662Z,100521.81
2023-05-14T10:03:19.588Z,100507.50
2023-05-14T10:05:50.981Z,100433.00
2023-05-14T10:08:23.181Z,100503.34
2023-05-14T10:10:52.434Z,100510.41
2023-05-14T10:13:24.756Z,100466.94
2023-05-14T10:15:58.635Z,100506.72
2023-05-14T10:18:29.946Z,100486.28
2023-05-14T10:21:03.780Z,100497.94
2023-05-14T10:23:31.637Z,100449.03
2023-05-14T10:26:00.525Z,100496.28
2023-05-14T10:28:29.973Z,100496.41
2023-05-14T10:30:57.864Z,100495.72
2023-05-14T10:33:25.870Z,100483.56
2023-05-14T10:35:58.399Z,100482.25
2023-05-14T10:38:28.330Z,100461.28
2023-05-14T10:41:02.396Z,100481.91
2023-05-14T10:43:32.751Z,100480.56
2023-05-14T10:46:01.461Z,100472.28
2023-05-14T10:48:29.795Z,100474.97
2023-05-14T10:50:58.647Z,100468.31
2023-05-14T10:53:34.087Z,100478.28
2023-05-14T10:56:05.821Z,100474.00
2023-05-14T10:58:37.273Z,100398.84
2023-05-14T11:01:06.566Z,100477.19
2023-05-14T11:03:40.698Z,100472.03
2023-05-14T11:06:09.531Z,100357.16
2023-05-14T11:08:37.812Z,100459.00
2023-05-14T11:11:06.812Z,100458.41
2023-05-14T11:13:36.518Z,100456.16
2023-05-14T11:16:21.128Z,100460.88
2023-05-14T11:18:55.786Z,100452.88
2023-05-14T11:21:23.819Z,100458.88
2023-05-14T11:23:53.185Z,100456.53
2023-05-14T11:26:21.755Z,100399.94
2023-05-14T11:28:51.676Z,100448.09
2023-05-14T11:31:20.222Z,100441.63
2023-05-14T11:33:48.362Z,100442.56
2023-05-14T11:36:16.893Z,100435.31
2023-05-14T11:38:50.668Z,100420.44
2023-05-14T11:41:21.148Z,100439.22
2023-05-14T11:43:49.685Z,100437.50
2023-05-14T11:46:19.767Z,100428.81
2023-05-14T11:48:48.680Z,100423.81
2023-05-14T11:51:16.610Z,100430.31
2023-05-14T11:53:46.495Z,100415.06
2023-05-14T11:56:14.975Z,100422.97
2023-05-14T11:58:48.818Z,100413.03
2023-05-14T12:01:17.863Z,100415.28
2023-05-14T12:03:47.379Z,100412.06
2023-05-14T12:06:15.456Z,100413.03
2023-05-14T12:08:43.697Z,100362.44
2023-05-14T12:11:11.984Z,100368.72
2023-05-14T12:13:40.750Z,100410.69
2023-05-14T12:16:08.660Z,100406.75
2023-05-14T12:18:36.615Z,100410.97
2023-05-14T12:21:08.516Z,100394.53
2023-05-14T12:23:36.597Z,100396.41
2023-05-14T12:26:06.172Z,100399.66
2023-05-14T12:28:37.578Z,100393.97
2023-05-14T12:31:06.198Z,100400.47
2023-05-14T12:33:34.159Z,100388.28
2023-05-14T12:36:13.512Z,100392.50
2023-05-14T12:38:50.556Z,100380.94
2023-05-14T12:41:18.882Z,100392.78
2023-05-14T12:43:49.106Z,100385.59
2023-05-14T12:46:17.104Z,100391.78
2023-05-14T12:48:44.789Z,100384.13
2023-05-14T12:51:12.384Z,100389.78
2023-05-14T12:53:40.064Z,100384.00
2023-05-14T12:56:09.708Z,100374.72
2023-05-14T12:58:37.336Z,100374.19
2023-05-14T13:01:05.785Z,100379.56
2023-05-14T13:03:33.701Z,100369.13
2023-05-14T13:06:01.424Z,100367.22
2023-05-14T13:08:29.091Z,100370.44
2023-05-14T13:10:57.458Z,100358.31
2023-05-14T13:13:26.476Z,100352.69
2023-05-14T13:15:54.399Z,100347.72
2023-05-14T13:18:22.231Z,100342.34
2023-05-14T13:20:49.873Z,100341.22
2023-05-14T13:23:17.531Z,100341.28
2023-05-14T13:25:45.780Z,100344.75
2023-05-14T13:28:15.065Z,100346.16
2023-05-14T13:31:03.909Z,100350.06
2023-05-14T13:33:31.898Z,100345.72
2023-05-14T13:35:59.519Z,100348.69
2023-05-14T13:38:27.240Z,100345.28
2023-05-14T13:40:57.274Z,100341.00
2023-05-14T13:43:24.917Z,100342.75
2023-05-14T13:45:54.086Z,100339.41
2023-05-14T13:48:21.737Z,100344.56
2023-05-14T13:50:50.102Z,100331.66
2023-05-14T13:53:17.768Z,100346.22
2023-05-14T13:55:46.697Z,100341.00
2023-05-14T13:58:16.770Z,100335.81
2023-05-14T14:00:44.403Z,100324.31
2023-05-14T14:03:13.360Z,100321.97
2023-05-14T14:05:41.055Z,100311.59
2023-05-14T14:08:22.559Z,100312.38
2023-05-14T14:10:51.495Z,100309.88
2023-05-14T14:13:19.281Z,100307.63
2023-05-14T14:15:46.918Z,100309.09
2023-05-14T14:18:16.191Z,100310.38
2023-05-14T14:20:43.795Z,100303.81
2023-05-14T14:23:11.396Z,100301.59
2023-05-14T14:25:39.073Z,100306.28
2023-05-14T14:28:06.691Z,100302.16
2023-05-14T14:30:34.664Z,100307.16
2023-05-14T14:33:02.386Z,100301.53
2023-05-14T14:35:33.331Z,100299.63
2023-05-14T14:38:00.907Z,100296.31
2023-05-14T14:40:29.707Z,100303.50
2023-05-14T14:42:57.372Z,100298.41
2023-05-14T14:45:25.295Z,100290.75
2023-05-14T14:47:53.281Z,100284.38
2023-05-14T14:50:20.921Z,100297.31
2023-05-14T14:52:49.955Z,100285.22
2023-05-14T14:55:17.545Z,100280.13
2023-05-14T14:57:45.192Z,100288.22
2023-05-14T15:00:13.711Z,100286.22
2023-05-14T15:02:42.969Z,100282.03
2023-05-14T15:05:10.775Z,100286.97
2023-05-14T15:07:38.411Z,100273.19
2023-05-14T15:10:08.109Z,100276.28
2023-05-14T15:12:35.708Z,100271.13
2023-05-14T15:15:03.359Z,100273.69
2023-05-14T15:17:31.023Z,100268.53
2023-05-14T15:19:58.708Z,100275.31
2023-05-14T15:22:26.311Z,100270.38
2023-05-14T15:24:53.911Z,100268.72
2023-05-14T15:27:22.880Z,100265.88
2023-05-14T15:29:50.556Z,100266.50
2023-05-14T15:32:18.303Z,100260.97
2023-05-14T15:34:45.920Z,100257.69
2023-05-14T15:37:13.536Z,100251.97
2023-05-14T15:39:41.161Z,100243.72
2023-05-14T15:42:08.886Z,100242.59
2023-05-14T15:44:39.042Z,100240.13
2023-05-14T15:47:07.116Z,100234.78
2023-05-14T15:49:34.792Z,100225.22
2023-05-14T15:52:02.856Z,100222.31
2023-05-14T15:54:30.865Z,100222.75
2023-05-14T15:56:58.456Z,100219.16
2023-05-14T15:59:26.130Z,100216.59
2023-05-14T16:01:55.293Z,100217.44
2023-05-14T16:04:22.998Z,100216.44
2023-05-14T16:06:51.909Z,100220.44
2023-05-14T16:09:19.647Z,100222.88
2023-05-14T16:11:47.229Z,100238.72
2023-05-14T16:14:14.849Z,100243.13
2023-05-14T16:16:42.511Z,100246.06
2023-05-14T16:19:11.765Z,100242.81
2023-05-14T16:21:39.514Z,100241.47
2023-05-14T16:24:07.681Z,100231.69
2023-05-14T16:26:35.292Z,100250.38
2023-05-14T16:29:02.923Z,100248.50
2023-05-14T16:31:31.468Z,100258.16
2023-05-14T16:33:59.278Z,100261.56
2023-05-14T16:36:28.361Z,100263.16
2023-05-14T16:39:07.341Z,100269.16
2023-05-14T16:41:35.567Z,100264.09
2023-05-14T16:44:03.326Z,100265.28
2023-05-14T16:46:32.053Z,100259.69
2023-05-14T16:48:59.997Z,100259.50
2023-05-14T16:51:29.085Z,100253.53
2023-05-14T16:53:56.731Z,100252.09
2023-05-14T16:56:24.317Z,100246.59
2023-05-14T16:58:51.991Z,100242.69
2023-05-14T17:01:19.777Z,100238.34
2023-05-14T17:03:47.457Z,100231.69
2023-05-14T17:06:15.126Z,100234.25
2023-05-14T17:08:44.148Z,100227.94
2023-05-14T17:11:11.778Z,100236.56
2023-05-14T17:13:39.488Z,100228.50
2023-05-14T17:16:07.589Z,100229.78
2023-05-14T17:18:35.380Z,100221.56
2023-05-14T17:21:04.745Z,100219.28
2023-05-14T17:23:32.326Z,100217.81
2023-05-14T17:26:01.432Z,100220.91
2023-05-14T17:28:29.957Z,100216.22
2023-05-14T17:30:57.633Z,100214.19
2023-05-14T17:33:25.420Z,100208.44
2023-05-14T17:35:53.084Z,100207.47
2023-05-14T17:38:20.721Z,100206.94
2023-05-14T17:40:48.772Z,100218.66
2023-05-14T17:43:17.875Z,100218.59
2023-05-14T17:45:53.753Z,100217.44
2023-05-14T17:48:22.094Z,100223.22
2023-05-14T17:50:49.815Z,100214.44
2023-05-14T17:53:17.482Z,100225.13
2023-05-14T17:55:45.185Z,100219.28
2023-05-14T17:58:13.444Z,100219.81
2023-05-14T18:00:42.688Z,100221.97
2023-05-14T18:03:10.506Z,100219.00
2023-05-14T18:05:38.360Z,100224.13
2023-05-14T18:08:06.303Z,100220.88
2023-05-14T18:10:33.929Z,100228.63
2023-05-14T18:13:01.691Z,100217.41
2023-05-14T18:15:31.493Z,100218.94
2023-05-14T18:18:00.802Z,100222.00
2023-05-14T18:20:28.590Z,100229.03
2023-05-14T18:22:56.248Z,100227.41
2023-05-14T18:25:24.128Z,100232.81
2023-05-14T18:27:51.959Z,100223.91
2023-05-14T18:30:19.716Z,100229.75
2023-05-14T18:32:47.485Z,100231.22
2023-05-14T18:35:16.560Z,100236.88
2023-05-14T18:37:44.245Z,100241.19
2023-05-14T18:40:16.238Z,100233.69
2023-05-14T18:43:06.188Z,100231.00
2023-05-14T18:45:34.076Z,100242.13
2023-05-14T18:48:01.821Z,100241.19
2023-05-14T18:50:29.472Z,100244.53
2023-05-14T18:52:57.171Z,100243.41
2023-05-14T18:55:25.178Z,100241.78
2023-05-14T18:57:53.125Z,100243.16
2023-05-14T19:00:22.339Z,100241.63
2023-05-14T19:02:50.144Z,100245.97
2023-05-14T19:05:17.822Z,100235.56
2023-05-14T19:07:47.944Z,100239.84
2023-05-14T19:10:15.907Z,100247.09
2023-05-14T19:12:43.580Z,100246.03
2023-05-14T19:15:12.086Z,100244.13
2023-05-14T19:17:41.964Z,100255.31
2023-05-14T19:20:10.478Z,100252.22
2023-05-14T19:22:38.241Z,100171.09
2023-05-14T19:25:07.869Z,100250.00
2023-05-14T19:27:37.742Z,100256.06
2023-05-14T19:30:06.213Z,100260.13
2023-05-14T19:32:36.036Z,100251.94
2023-05-14T19:35:05.980Z,100252.50
2023-05-14T19:37:35.168Z,100261.09
2023-05-14T19:40:03.647Z,100252.75
2023-05-14T19:42:31.795Z,100264.28
2023-05-14T19:44:59.428Z,100256.56
2023-05-14T19:47:28.450Z,100255.13
2023-05-14T19:49:56.427Z,100260.88
2023-05-14T19:52:25.639Z,100263.75
2023-05-14T19:54:53.256Z,100254.63
2023-05-14T19:57:21.366Z,100262.66
2023-05-14T19:59:49.274Z,100254.50
2023-05-14T20:02:18.577Z,100253.97
2023-05-14T20:04:47.401Z,100252.56
2023-05-14T20:07:15.739Z,100246.00
2023-05-14T20:09:44.898Z,100249.81
2023-05-14T20:12:13.260Z,100244.94
2023-05-14T20:14:41.522Z,100250.19
2023-05-14T20:17:09.349Z,100249.50
2023-05-14T20:19:37.442Z,100248.63
2023-05-14T20:22:05.369Z,100248.81
2023-05-14T20:24:33.546Z,100244.53
2023-05-14T20:27:03.052Z,100245.34
2023-05-14T20:29:30.614Z,100240.81
2023-05-14T20:31:58.276Z,100244.69
2023-05-14T20:34:26.056Z,100248.75
2023-05-14T20:36:53.706Z,100248.16
2023-05-14T20:39:21.362Z,100246.50
2023-05-14T20:41:49.252Z,100244.94
2023-05-14T20:44:19.929Z,100235.53
2023-05-14T20:46:48.498Z,100240.06
2023-05-14T20:49:16.318Z,100240.91
2023-05-14T20:51:43.881Z,100237.00
2023-05-14T20:54:11.619Z,100238.78
2023-05-14T20:56:39.315Z,100235.34
2023-05-14T20:59:07.049Z,100229.78
2023-05-14T21:01:36.099Z,100235.41
2023-05-14T21:04:03.862Z,100238.63
2023-05-14T21:06:31.915Z,100235.28
2023-05-14T21:08:59.502Z,100242.22
2023-05-14T21:11:27.140Z,100235.59
2023-05-14T21:13:54.787Z,100230.03
2023-05-14T21:16:22.582Z,100225.22
2023-05-14T21:18:51.665Z,100226.75
2023-05-14T21:21:19.418Z,100224.47
2023-05-14T21:23:47.120Z,100222.94
2023-05-14T21:26:14.733Z,100220.88
2023-05-14T21:28:42.394Z,100217.25
2023-05-14T21:31:10.563Z,100215.50
2023-05-14T21:33:38.273Z,100219.63
2023-05-14T21:36:08.065Z,100209.97
2023-05-14T21:38:36.076Z,100216.22
2023-05-14T21:41:03.677Z,100221.28
2023-05-14T21:43:31.251Z,100222.94
2023-05-14T21:45:58.994Z,100221.38
2023-05-14T21:48:26.686Z,100223.66
2023-05-14T21:50:54.392Z,100226.63
2023-05-14T21:53:23.596Z,100215.16
2023-05-14T21:55:51.282Z,100212.47
2023-05-14T21:58:19.101Z,100219.41
2023-05-14T22:00:46.764Z,100215.22
2023-05-14T22:03:14.472Z,100210.88
2023-05-14T22:05:42.193Z,100211.50
2023-05-14T22:08:10.061Z,100214.25
2023-05-14T22:10:39.032Z,100211.78
2023-05-14T22:13:06.701Z,100214.72
2023-05-14T22:15:34.348Z,100203.38
2023-05-14T22:18:03.079Z,100211.28
2023-05-14T22:20:30.840Z,100198.47
2023-05-14T22:22:58.468Z,100196.56
2023-05-14T22:25:26.427Z,100197.59
2023-05-14T22:27:55.729Z,100198.81
2023-05-14T22:30:23.427Z,100194.84
2023-05-14T22:32:51.087Z,100201.16
2023-05-14T22:35:18.892Z,100186.25
2023-05-14T22:37:46.461Z,100183.09
2023-05-14T22:40:14.531Z,100180.84
2023-05-14T22:42:42.186Z,100189.00
2023-05-14T22:45:11.679Z,100182.94
2023-05-14T22:47:39.387Z,100178.59
2023-05-14T22:50:11.376Z,100177.00
2023-05-14T22:52:39.362Z,100172.72
2023-05-14T22:55:07.770Z,100174.81
2023-05-14T22:57:35.731Z,100169.22
2023-05-14T23:00:04.145Z,100166.03
2023-05-14T23:02:33.134Z,100166.97
2023-05-14T23:05:00.929Z,100172.28
2023-05-14T23:07:28.572Z,100168.88
2023-05-14T23:09:56.167Z,100169.00
2023-05-14T23:12:23.757Z,100163.72
2023-05-14T23:14:51.426Z,100169.47
2023-05-14T23:17:19.050Z,100168.69
2023-05-14T23:19:48.072Z,100175.47
2023-05-14T23:22:15.748Z,100165.69
2023-05-14T23:24:43.522Z,100158.72
2023-05-14T23:27:11.856Z,100158.66
2023-05-14T23:29:39.626Z,100150.81
2023-05-14T23:32:08.255Z,100153.56
2023-05-14T23:34:36.054Z,100159.00
2023-05-14T23:37:05.325Z,100146.31
2023-05-14T23:39:33.035Z,100141.09
2023-05-14T23:42:00.635Z,100135.66
2023-05-14T23:44:28.340Z,100139.00
2023-05-14T23:46:56.024Z,100131.22
2023-05-14T23:49:23.716Z,100132.38
2023-05-14T23:51:51.597Z,100127.94
2023-05-14T23:54:21.110Z,100125.50
2023-05-14T23:56:48.833Z,100117.34
2023-05-14T23:59:16.753Z,100126.47
